Time;durP1;ratioP1;P1;durP2;ratioP2;P2;SDS_P1;SDS_P2;PMS_P1;PMS_P2;Temp;Humidity;BMP_temperature;BMP_pressure;BME280_temperature;BME280_humidity;BME280_pressure;Samples;Min_cycle;Max_cycle;Signal;HPM_P1;HPM_P2
2021/11/24 00:01:20;;;;;;;88.47;34.43;;;9.50;94.30;;;;;;5055871;28;20192;-85
2021/11/24 00:03:45;;;;;;;83.00;33.07;;;9.40;95.70;;;;;;5055771;28;20195;-84
2021/11/24 00:06:11;;;;;;;89.77;34.73;;;9.60;96.40;;;;;;5058756;28;20165;-84
2021/11/24 00:08:37;;;;;;;87.73;35.93;;;9.50;96.20;;;;;;5054136;28;20177;-83
2021/11/24 00:11:02;;;;;;;95.07;35.17;;;9.50;96.00;;;;;;5054068;28;20227;-82
2021/11/24 00:13:28;;;;;;;89.57;34.83;;;9.70;96.00;;;;;;5055026;28;20216;-85
2021/11/24 00:15:54;;;;;;;97.67;35.50;;;9.40;96.10;;;;;;5054433;28;20215;-84
2021/11/24 00:18:20;;;;;;;94.00;35.63;;;9.30;97.40;;;;;;5054094;28;20184;-83
2021/11/24 00:20:45;;;;;;;81.03;33.70;;;9.20;98.40;;;;;;5053759;28;20657;-84
2021/11/24 00:23:11;;;;;;;88.67;35.57;;;9.20;99.40;;;;;;5042063;28;20185;-83
2021/11/24 00:25:37;;;;;;;92.90;36.57;;;9.40;99.00;;;;;;5046322;28;20177;-82
2021/11/24 00:28:04;;;;;;;93.57;36.60;;;9.50;97.80;;;;;;5056839;28;20232;-86
2021/11/24 00:30:30;;;;;;;86.40;34.40;;;9.30;98.20;;;;;;5057107;28;20185;-81
2021/11/24 00:32:56;;;;;;;92.53;34.00;;;9.10;99.30;;;;;;5066662;28;20208;-86
2021/11/24 00:35:22;;;;;;;90.53;33.57;;;9.10;99.90;;;;;;5052988;28;20177;-81
2021/11/24 00:37:48;;;;;;;84.53;33.70;;;9.00;99.90;;;;;;5065642;28;20272;-80
2021/11/24 00:40:14;;;;;;;80.63;33.33;;;9.00;99.90;;;;;;5063575;28;20173;-80
2021/11/24 00:42:39;;;;;;;86.03;33.20;;;9.20;99.90;;;;;;5063809;28;20176;-80
2021/11/24 00:45:06;;;;;;;87.83;32.70;;;9.30;99.90;;;;;;5053482;28;20335;-82
2021/11/24 00:47:32;;;;;;;87.43;33.27;;;9.40;99.90;;;;;;5053214;28;20276;-84
2021/11/24 00:49:58;;;;;;;90.03;34.23;;;9.40;99.90;;;;;;5052829;28;20261;-85
2021/11/24 00:52:24;;;;;;;89.67;34.20;;;9.30;99.90;;;;;;5054694;28;20258;-83
2021/11/24 00:54:51;;;;;;;82.10;32.43;;;9.50;99.90;;;;;;5052728;28;20581;-84
2021/11/24 00:57:16;;;;;;;81.90;34.00;;;9.60;99.90;;;;;;5040476;28;20264;-85
2021/11/24 00:59:42;;;;;;;81.33;32.60;;;9.40;99.90;;;;;;5031243;28;20616;-81
2021/11/24 01:02:08;;;;;;;76.93;32.60;;;9.50;99.90;;;;;;5033385;28;20200;-81
2021/11/24 01:04:34;;;;;;;96.30;34.47;;;9.50;99.90;;;;;;5032234;28;20193;-82
2021/11/24 01:06:59;;;;;;;88.20;34.43;;;9.30;99.90;;;;;;5052891;28;20715;-81
2021/11/24 01:09:25;;;;;;;88.13;34.97;;;9.30;99.90;;;;;;5053029;28;20180;-80
2021/11/24 01:11:51;;;;;;;99.27;36.47;;;9.30;99.90;;;;;;5051443;28;20189;-83
2021/11/24 01:14:16;;;;;;;94.30;34.33;;;9.40;99.90;;;;;;5044407;28;20188;-82
2021/11/24 01:16:44;;;;;;;89.93;35.97;;;9.40;99.90;;;;;;5044923;28;20168;-82
2021/11/24 01:19:10;;;;;;;77.90;34.60;;;9.50;99.90;;;;;;5051599;28;20177;-82
2021/11/24 01:21:37;;;;;;;90.70;35.03;;;9.30;99.90;;;;;;5051218;28;20185;-80
2021/11/24 01:24:02;;;;;;;87.73;34.60;;;9.50;99.90;;;;;;5044639;28;20234;-82
2021/11/24 01:26:28;;;;;;;79.50;33.03;;;9.40;99.90;;;;;;5052316;28;20185;-82
2021/11/24 01:28:54;;;;;;;82.20;33.23;;;9.50;99.90;;;;;;5041290;28;20272;-81
2021/11/24 01:31:20;;;;;;;98.63;35.07;;;9.60;99.90;;;;;;5037598;28;20187;-81
2021/11/24 01:33:46;;;;;;;95.70;35.03;;;9.60;99.70;;;;;;5050566;28;20212;-80
2021/11/24 01:36:11;;;;;;;97.57;35.40;;;9.70;98.50;;;;;;5051709;28;20177;-81
2021/11/24 01:38:37;;;;;;;94.47;36.17;;;9.90;97.40;;;;;;5052306;28;20657;-80
2021/11/24 01:41:03;;;;;;;90.53;35.47;;;9.70;96.70;;;;;;5066968;28;20176;-80
2021/11/24 01:43:28;;;;;;;98.93;36.77;;;9.70;97.40;;;;;;5070058;28;20286;-81
2021/11/24 01:45:54;;;;;;;100.23;38.40;;;9.70;97.50;;;;;;5072838;28;20176;-81
2021/11/24 01:48:25;;;;;;;94.97;35.07;;;9.60;97.90;;;;;;5058372;28;20297;-81
2021/11/24 01:50:52;;;;;;;85.90;33.57;;;9.70;98.60;;;;;;5052251;28;20181;-81
2021/11/24 01:53:18;;;;;;;81.97;33.93;;;9.60;99.10;;;;;;5051614;28;20204;-81
2021/11/24 01:55:44;;;;;;;93.83;36.03;;;9.60;99.20;;;;;;5051185;28;20185;-80
2021/11/24 01:58:10;;;;;;;88.73;34.70;;;9.70;99.20;;;;;;5051035;28;20227;-80
2021/11/24 02:00:37;;;;;;;95.60;36.80;;;9.70;98.80;;;;;;5052636;28;20197;-83
2021/11/24 02:03:04;;;;;;;88.60;33.93;;;9.70;98.90;;;;;;5052418;28;20203;-82
2021/11/24 02:05:30;;;;;;;78.47;32.67;;;9.50;99.20;;;;;;5055949;28;20672;-81
2021/11/24 02:07:55;;;;;;;83.87;34.73;;;9.50;99.80;;;;;;5052654;28;20276;-81
2021/11/24 02:10:23;;;;;;;81.43;33.07;;;9.50;99.70;;;;;;5052615;28;20205;-79
2021/11/24 02:12:49;;;;;;;79.37;34.40;;;9.50;99.70;;;;;;5051171;28;20691;-79
2021/11/24 02:15:15;;;;;;;78.80;33.43;;;9.40;99.90;;;;;;5052520;28;20169;-81
2021/11/24 02:17:41;;;;;;;79.60;34.87;;;9.40;99.90;;;;;;5051107;28;20188;-81
2021/11/24 02:20:38;;;;;;;82.27;33.73;;;9.40;99.90;;;;;;5052829;28;20200;-82
2021/11/24 02:23:06;;;;;;;76.33;32.80;;;9.10;99.90;;;;;;5044500;28;20200;-81
2021/11/24 02:25:33;;;;;;;82.07;33.30;;;9.10;99.90;;;;;;5054282;28;20302;-85
2021/11/24 02:28:00;;;;;;;67.20;31.57;;;9.10;99.90;;;;;;5063178;28;20200;-80
2021/11/24 02:30:26;;;;;;;86.57;34.97;;;9.10;99.90;;;;;;5060309;28;20195;-83
2021/11/24 02:32:52;;;;;;;87.27;36.33;;;8.90;99.90;;;;;;5061142;28;20291;-80
2021/11/24 02:35:18;;;;;;;79.37;35.03;;;8.80;99.90;;;;;;5058308;28;20558;-79
2021/11/24 02:37:44;;;;;;;94.90;37.53;;;8.70;99.90;;;;;;5045687;28;20213;-82
2021/11/24 02:40:10;;;;;;;87.03;35.27;;;8.80;99.90;;;;;;5046149;28;20509;-80
2021/11/24 02:42:40;;;;;;;84.37;33.47;;;8.90;99.90;;;;;;5040224;28;20182;-80
2021/11/24 02:45:07;;;;;;;93.80;35.90;;;8.90;99.90;;;;;;5046029;28;20189;-82
2021/11/24 02:47:33;;;;;;;81.43;35.47;;;8.90;99.90;;;;;;5048133;28;20181;-81
2021/11/24 02:50:03;;;;;;;87.77;35.60;;;9.00;99.90;;;;;;5061514;28;20212;-79
2021/11/24 02:52:30;;;;;;;79.63;35.80;;;9.00;99.90;;;;;;5053693;28;20239;-81
2021/11/24 02:55:00;;;;;;;91.43;36.73;;;8.80;99.90;;;;;;5059389;28;20280;-81
2021/11/24 02:57:52;;;;;;;76.57;37.07;;;8.80;99.90;;;;;;5060775;28;20199;-80
2021/11/24 03:00:22;;;;;;;84.27;35.67;;;8.70;99.90;;;;;;5060714;28;20243;-81
2021/11/24 03:02:48;;;;;;;76.10;36.00;;;8.60;99.90;;;;;;5059287;28;20181;-83
2021/11/24 03:05:16;;;;;;;85.50;36.87;;;8.60;99.90;;;;;;5064011;28;20215;-80
2021/11/24 03:07:42;;;;;;;83.60;38.47;;;8.50;99.90;;;;;;5059399;28;20593;-80
2021/11/24 03:10:09;;;;;;;87.03;39.03;;;8.50;99.90;;;;;;5052899;28;20177;-79
2021/11/24 03:12:36;;;;;;;87.77;38.83;;;8.70;99.90;;;;;;5056798;28;20197;-79
2021/11/24 03:15:05;;;;;;;88.77;40.13;;;8.70;99.90;;;;;;5058435;28;20182;-80
2021/11/24 03:17:31;;;;;;;92.63;37.63;;;8.80;99.90;;;;;;5066926;28;20169;-80
2021/11/24 03:19:57;;;;;;;95.00;39.43;;;8.70;99.90;;;;;;5070005;28;20170;-81
2021/11/24 03:22:24;;;;;;;89.30;38.60;;;8.60;99.90;;;;;;5076938;28;20173;-82
2021/11/24 03:24:57;;;;;;;89.70;39.40;;;8.60;99.90;;;;;;5073707;28;20232;-84
2021/11/24 03:27:26;;;;;;;91.43;37.17;;;8.50;99.90;;;;;;5063370;28;20675;-83
2021/11/24 03:29:56;;;;;;;80.87;39.20;;;8.50;99.90;;;;;;5059906;28;20193;-84
2021/11/24 03:32:27;;;;;;;84.40;38.70;;;8.60;99.90;;;;;;5058653;28;20215;-83
2021/11/24 03:34:53;;;;;;;84.03;40.07;;;8.50;99.90;;;;;;5058925;28;20225;-85
2021/11/24 03:37:19;;;;;;;77.17;41.10;;;8.60;99.90;;;;;;5041047;28;20197;-82
2021/11/24 03:39:46;;;;;;;82.37;39.27;;;8.40;99.90;;;;;;5038286;28;20269;-82
2021/11/24 03:42:14;;;;;;;94.90;42.23;;;8.40;99.90;;;;;;5046594;28;20657;-80
2021/11/24 03:44:39;;;;;;;90.10;42.00;;;8.50;99.90;;;;;;5055332;28;20165;-82
2021/11/24 03:47:07;;;;;;;86.87;41.87;;;8.50;99.90;;;;;;5054517;28;20226;-80
2021/11/24 03:49:34;;;;;;;88.67;43.13;;;8.40;99.90;;;;;;5050003;28;20189;-80
2021/11/24 03:52:00;;;;;;;82.67;40.20;;;8.40;99.90;;;;;;5036919;28;20185;-79
2021/11/24 03:54:26;;;;;;;86.70;41.47;;;8.40;99.90;;;;;;5043915;28;20186;-80
2021/11/24 03:56:52;;;;;;;90.73;42.30;;;8.30;99.90;;;;;;5052012;28;20826;-81
2021/11/24 03:59:17;;;;;;;83.27;41.87;;;8.50;99.90;;;;;;5052646;28;20189;-81
2021/11/24 04:01:43;;;;;;;73.33;40.00;;;8.60;99.90;;;;;;5052396;28;20204;-84
2021/11/24 04:04:09;;;;;;;79.30;40.13;;;8.60;99.90;;;;;;5049387;28;20185;-80
2021/11/24 04:06:35;;;;;;;83.73;42.07;;;8.60;99.90;;;;;;5050459;28;20267;-84
2021/11/24 04:09:01;;;;;;;79.80;40.33;;;8.60;99.90;;;;;;5048296;28;20172;-80
2021/11/24 04:11:27;;;;;;;91.63;42.60;;;8.60;99.90;;;;;;5057323;28;20181;-81
2021/11/24 04:13:52;;;;;;;83.90;42.60;;;8.60;99.90;;;;;;5060820;28;20216;-81
2021/11/24 04:16:18;;;;;;;88.93;44.57;;;8.70;99.90;;;;;;5061644;28;20188;-84
2021/11/24 04:18:44;;;;;;;80.37;39.27;;;8.80;99.90;;;;;;5064210;28;20195;-82
2021/11/24 04:21:10;;;;;;;88.27;40.30;;;8.70;99.90;;;;;;5062341;28;20184;-80
2021/11/24 04:23:36;;;;;;;85.80;43.47;;;8.70;99.90;;;;;;5058342;28;20212;-81
2021/11/24 04:26:01;;;;;;;87.07;42.57;;;8.70;99.90;;;;;;5053675;28;20590;-81
2021/11/24 04:28:27;;;;;;;85.17;41.53;;;8.70;99.90;;;;;;5055503;28;20275;-81
2021/11/24 04:30:53;;;;;;;86.20;42.37;;;8.80;99.90;;;;;;5053191;28;20633;-84
2021/11/24 04:33:19;;;;;;;73.83;40.30;;;8.90;99.90;;;;;;5041183;28;20697;-81
2021/11/24 04:35:44;;;;;;;73.13;38.00;;;8.90;99.90;;;;;;5033482;28;20173;-80
2021/11/24 04:38:10;;;;;;;72.00;38.47;;;8.80;99.90;;;;;;5033967;28;20184;-80
2021/11/24 04:40:37;;;;;;;70.10;38.27;;;8.80;99.90;;;;;;5037850;28;20174;-80
2021/11/24 04:43:05;;;;;;;70.67;37.30;;;8.90;99.90;;;;;;5043907;28;20172;-80
2021/11/24 04:45:31;;;;;;;74.53;38.53;;;8.80;99.90;;;;;;5059302;28;20178;-81
2021/11/24 04:47:57;;;;;;;61.93;35.67;;;8.90;99.90;;;;;;5068651;28;20173;-81
2021/11/24 04:50:23;;;;;;;63.20;36.07;;;8.80;99.90;;;;;;5048016;28;20311;-80
2021/11/24 04:52:49;;;;;;;64.60;34.93;;;8.70;99.90;;;;;;5045469;28;20201;-82
2021/11/24 04:55:15;;;;;;;64.10;36.47;;;8.80;99.90;;;;;;5033696;28;20185;-84
2021/11/24 04:57:41;;;;;;;61.57;34.20;;;8.80;99.90;;;;;;5049238;28;20181;-80
2021/11/24 05:00:16;;;;;;;59.00;33.97;;;8.80;99.90;;;;;;5059326;28;20181;-81
2021/11/24 05:02:46;;;;;;;63.40;33.90;;;8.90;99.90;;;;;;5056860;28;20188;-81
2021/11/24 05:05:12;;;;;;;63.80;35.43;;;8.80;99.90;;;;;;5064297;28;20215;-80
2021/11/24 05:07:39;;;;;;;61.53;35.87;;;8.80;99.90;;;;;;5061090;28;20209;-80
2021/11/24 05:10:05;;;;;;;65.77;36.57;;;8.80;99.90;;;;;;5047475;28;20181;-81
2021/11/24 05:12:32;;;;;;;63.77;36.13;;;8.80;99.90;;;;;;5041968;28;20201;-80
2021/11/24 05:14:59;;;;;;;66.93;35.10;;;8.90;99.90;;;;;;5043160;28;20173;-81
2021/11/24 05:17:30;;;;;;;62.17;34.33;;;8.90;99.90;;;;;;5052741;28;20184;-83
2021/11/24 05:19:56;;;;;;;66.03;37.53;;;8.90;99.90;;;;;;5056620;28;20222;-84
2021/11/24 05:22:22;;;;;;;61.47;35.00;;;8.90;99.90;;;;;;5056653;28;20226;-82
2021/11/24 05:24:48;;;;;;;69.43;37.47;;;8.90;99.90;;;;;;5060408;28;20188;-81
2021/11/24 05:27:14;;;;;;;60.23;34.67;;;8.90;99.90;;;;;;5072646;28;20241;-80
2021/11/24 05:29:40;;;;;;;63.67;35.23;;;9.00;99.90;;;;;;5076782;28;20165;-80
2021/11/24 05:32:07;;;;;;;61.27;35.10;;;9.00;99.90;;;;;;5075486;28;20180;-80
2021/11/24 05:34:32;;;;;;;64.23;35.50;;;9.00;99.90;;;;;;5058493;28;20185;-81
2021/11/24 05:36:59;;;;;;;63.47;37.13;;;9.00;99.90;;;;;;5053896;28;20633;-83
2021/11/24 05:39:25;;;;;;;65.50;38.23;;;9.00;99.90;;;;;;5058206;28;20197;-81
2021/11/24 05:41:51;;;;;;;64.00;35.50;;;9.00;99.90;;;;;;5047788;28;20184;-82
2021/11/24 05:44:24;;;;;;;62.87;34.17;;;8.90;99.90;;;;;;5057480;28;20177;-82
2021/11/24 05:46:57;;;;;;;60.87;35.87;;;9.00;99.90;;;;;;5053374;28;20234;-83
2021/11/24 05:49:25;;;;;;;63.73;35.57;;;9.00;99.90;;;;;;5053596;28;20618;-84
2021/11/24 05:51:52;;;;;;;63.47;35.33;;;9.00;99.90;;;;;;5052010;28;20282;-84
2021/11/24 05:54:18;;;;;;;58.03;34.63;;;9.10;99.90;;;;;;5052768;28;20239;-84
2021/11/24 05:56:45;;;;;;;59.43;35.60;;;9.20;99.90;;;;;;5053038;28;20594;-81
2021/11/24 05:59:12;;;;;;;53.13;32.73;;;9.00;99.90;;;;;;5057238;28;20181;-83
2021/11/24 06:01:38;;;;;;;51.40;31.43;;;9.20;99.90;;;;;;5058291;28;20279;-82
2021/11/24 06:04:05;;;;;;;54.33;30.97;;;9.10;99.90;;;;;;5052028;28;20192;-84
2021/11/24 06:06:32;;;;;;;57.07;32.37;;;9.00;99.90;;;;;;5045793;28;20182;-83
2021/11/24 06:08:58;;;;;;;57.47;32.73;;;9.20;99.90;;;;;;5053504;28;20183;-82
2021/11/24 06:11:24;;;;;;;58.53;33.20;;;9.10;99.90;;;;;;5057859;28;20181;-84
2021/11/24 06:13:50;;;;;;;63.10;34.67;;;9.10;99.90;;;;;;5056252;28;20205;-85
2021/11/24 06:16:15;;;;;;;57.23;32.10;;;9.20;99.90;;;;;;5056835;28;20180;-82
2021/11/24 06:18:42;;;;;;;58.73;33.53;;;9.20;99.90;;;;;;5056615;28;20180;-82
2021/11/24 06:21:08;;;;;;;57.23;31.73;;;9.20;99.90;;;;;;5057082;28;20205;-84
2021/11/24 06:23:38;;;;;;;54.77;32.43;;;9.20;99.90;;;;;;5056079;28;20211;-82
2021/11/24 06:26:05;;;;;;;57.53;32.77;;;9.20;99.90;;;;;;5055593;28;20270;-84
2021/11/24 06:28:31;;;;;;;62.27;33.43;;;9.20;99.90;;;;;;5056058;28;20184;-81
2021/11/24 06:30:56;;;;;;;59.67;32.80;;;9.20;99.90;;;;;;5062903;28;20212;-82
2021/11/24 06:33:22;;;;;;;61.30;33.70;;;9.20;99.90;;;;;;5067899;28;20672;-81
2021/11/24 06:35:48;;;;;;;55.20;30.87;;;9.10;99.90;;;;;;5068529;28;20184;-81
2021/11/24 06:38:13;;;;;;;56.00;31.67;;;9.20;99.90;;;;;;5069771;28;20327;-79
2021/11/24 06:40:39;;;;;;;55.20;30.20;;;9.00;99.90;;;;;;5068998;28;20181;-79
2021/11/24 06:43:05;;;;;;;56.30;31.17;;;9.00;99.90;;;;;;5058155;28;20176;-80
2021/11/24 06:45:31;;;;;;;59.00;32.90;;;9.00;99.90;;;;;;5060592;28;20499;-79
2021/11/24 06:47:57;;;;;;;57.17;32.43;;;9.20;99.90;;;;;;5069957;28;20180;-81
2021/11/24 06:50:23;;;;;;;63.80;33.27;;;9.30;99.90;;;;;;5070005;28;20306;-80
2021/11/24 06:52:49;;;;;;;65.80;34.63;;;9.40;99.90;;;;;;5069088;28;20208;-82
2021/11/24 06:55:15;;;;;;;72.30;36.23;;;9.50;99.90;;;;;;5071258;28;20177;-81
2021/11/24 06:57:42;;;;;;;65.13;34.77;;;9.70;99.90;;;;;;5070166;28;20633;-81
2021/11/24 07:00:11;;;;;;;65.47;34.07;;;9.70;99.90;;;;;;5063830;28;20653;-81
2021/11/24 07:02:37;;;;;;;59.67;32.17;;;9.70;99.90;;;;;;5065627;28;20177;-83
2021/11/24 07:05:06;;;;;;;62.50;32.27;;;9.60;99.90;;;;;;5057083;28;20257;-83
2021/11/24 07:07:33;;;;;;;61.23;33.73;;;9.60;99.90;;;;;;5050868;28;20230;-81
2021/11/24 07:10:06;;;;;;;57.70;31.57;;;9.50;99.90;;;;;;5048205;28;20177;-82
2021/11/24 07:12:32;;;;;;;55.57;32.40;;;9.50;99.90;;;;;;5046631;28;20308;-81
2021/11/24 07:14:59;;;;;;;58.50;31.57;;;9.40;99.90;;;;;;5054361;28;20177;-82
2021/11/24 07:17:25;;;;;;;57.40;31.67;;;9.50;99.90;;;;;;5057345;28;20206;-83
2021/11/24 07:19:51;;;;;;;57.33;31.77;;;9.70;99.90;;;;;;5055059;28;20531;-81
2021/11/24 07:22:17;;;;;;;57.93;32.70;;;9.60;99.90;;;;;;5055390;28;20189;-81
2021/11/24 07:24:49;;;;;;;57.40;31.80;;;9.70;99.90;;;;;;5057027;28;20223;-81
2021/11/24 07:27:14;;;;;;;58.07;31.37;;;9.90;99.90;;;;;;5047923;28;20184;-82
2021/11/24 07:29:41;;;;;;;50.20;29.67;;;9.80;99.90;;;;;;5056512;28;20195;-82
2021/11/24 07:32:08;;;;;;;51.83;30.43;;;9.60;99.90;;;;;;5053621;28;20211;-83
2021/11/24 07:34:34;;;;;;;49.57;29.67;;;9.50;99.90;;;;;;5048530;28;20649;-82
2021/11/24 07:37:00;;;;;;;52.07;31.60;;;9.50;99.90;;;;;;5053532;28;20180;-83
2021/11/24 07:39:26;;;;;;;49.83;30.27;;;9.50;99.90;;;;;;5053504;28;20173;-83
2021/11/24 07:41:51;;;;;;;48.80;29.80;;;9.50;99.90;;;;;;5042840;28;20622;-83
2021/11/24 07:44:17;;;;;;;54.73;31.40;;;9.70;99.90;;;;;;5030654;28;20231;-83
2021/11/24 07:46:43;;;;;;;52.73;29.60;;;9.60;99.90;;;;;;5054349;28;20172;-84
2021/11/24 07:49:08;;;;;;;52.97;31.53;;;9.50;99.90;;;;;;5053220;28;20636;-84
2021/11/24 07:51:35;;;;;;;52.67;30.50;;;9.50;99.90;;;;;;5054823;28;20647;-83
2021/11/24 07:54:03;;;;;;;54.07;30.73;;;9.50;99.90;;;;;;5044743;28;20204;-83
2021/11/24 07:56:28;;;;;;;54.83;31.37;;;9.50;99.90;;;;;;5057670;28;20180;-84
2021/11/24 07:58:54;;;;;;;50.07;29.17;;;9.60;99.90;;;;;;5053117;28;20197;-84
2021/11/24 08:01:20;;;;;;;49.47;28.93;;;9.50;99.90;;;;;;5054853;28;20195;-84
2021/11/24 08:03:48;;;;;;;47.27;28.33;;;9.40;99.90;;;;;;5055637;28;20204;-84
2021/11/24 08:06:14;;;;;;;43.13;26.33;;;9.50;99.90;;;;;;5061681;28;20177;-81
2021/11/24 08:08:40;;;;;;;44.43;27.47;;;9.60;99.90;;;;;;5071573;28;20211;-80
2021/11/24 08:11:12;;;;;;;44.50;26.83;;;9.80;99.90;;;;;;5073607;28;20184;-82
2021/11/24 08:13:38;;;;;;;47.90;28.23;;;9.50;99.90;;;;;;5075059;28;20220;-84
2021/11/24 08:16:09;;;;;;;49.10;28.07;;;9.50;99.90;;;;;;5055738;28;20209;-83
2021/11/24 08:18:36;;;;;;;44.93;27.40;;;9.50;99.90;;;;;;5047936;28;20181;-83
2021/11/24 08:21:05;;;;;;;44.43;27.17;;;9.50;99.90;;;;;;5049420;28;20177;-81
2021/11/24 08:23:31;;;;;;;47.10;28.10;;;9.50;99.90;;;;;;5054762;28;20306;-83
2021/11/24 08:25:57;;;;;;;46.60;28.37;;;9.50;99.90;;;;;;5054326;28;20648;-82
2021/11/24 08:28:22;;;;;;;48.70;28.97;;;9.60;99.90;;;;;;5054031;28;20640;-80
2021/11/24 08:30:48;;;;;;;50.97;30.77;;;9.60;99.90;;;;;;5053438;28;20177;-82
2021/11/24 08:33:14;;;;;;;49.70;29.97;;;9.70;99.90;;;;;;5041163;28;20700;-81
2021/11/24 08:35:39;;;;;;;47.87;28.67;;;9.60;99.90;;;;;;5051372;28;20169;-83
2021/11/24 08:38:05;;;;;;;51.30;29.23;;;9.60;99.60;;;;;;5052761;28;20204;-80
2021/11/24 08:40:31;;;;;;;47.10;28.23;;;9.50;99.40;;;;;;5054431;28;20188;-82
2021/11/24 08:42:58;;;;;;;47.63;28.53;;;9.50;99.50;;;;;;5052923;28;20185;-82
2021/11/24 08:45:23;;;;;;;48.87;28.57;;;9.50;99.30;;;;;;5050484;28;20172;-84
2021/11/24 08:47:50;;;;;;;48.50;28.90;;;9.50;99.10;;;;;;5039426;28;20177;-83
2021/11/24 08:50:17;;;;;;;49.07;30.03;;;9.50;99.20;;;;;;5053353;28;20173;-83
2021/11/24 08:52:43;;;;;;;50.67;29.47;;;9.50;99.00;;;;;;5063081;28;20993;-83
2021/11/24 08:55:10;;;;;;;43.23;27.50;;;9.50;98.90;;;;;;5058819;28;20169;-84
2021/11/24 08:57:37;;;;;;;48.90;28.27;;;9.50;98.50;;;;;;5056330;28;20227;-82
2021/11/24 09:00:11;;;;;;;44.33;26.40;;;9.50;98.30;;;;;;5057662;28;20637;-83
2021/11/24 09:02:39;;;;;;;49.10;28.80;;;9.30;98.40;;;;;;5071763;28;20188;-83
2021/11/24 09:05:07;;;;;;;46.93;28.23;;;9.30;98.80;;;;;;5061781;28;20210;-82
2021/11/24 09:07:32;;;;;;;48.73;28.83;;;9.50;98.90;;;;;;5076124;28;20211;-82
2021/11/24 09:10:27;;;;;;;46.53;27.53;;;9.60;98.50;;;;;;5086629;28;20172;-82
2021/11/24 09:12:58;;;;;;;45.90;27.50;;;9.70;97.20;;;;;;5072964;28;20260;-81
2021/11/24 09:15:34;;;;;;;46.80;28.97;;;9.60;97.10;;;;;;5069237;28;20173;-84
2021/11/24 09:18:03;;;;;;;50.57;29.60;;;9.50;97.00;;;;;;5051991;28;20688;-81
2021/11/24 09:20:50;;;;;;;48.70;28.57;;;9.40;97.40;;;;;;5070472;28;20165;-84
2021/11/24 09:23:18;;;;;;;47.23;28.37;;;9.50;97.50;;;;;;5068475;28;20181;-82
2021/11/24 09:25:52;;;;;;;50.03;28.67;;;9.40;97.70;;;;;;5058647;28;20210;-83
2021/11/24 09:28:21;;;;;;;51.30;29.83;;;9.30;98.10;;;;;;5058936;28;20543;-80
2021/11/24 09:30:49;;;;;;;51.40;29.50;;;9.30;98.60;;;;;;5059216;28;20255;-81
2021/11/24 09:33:15;;;;;;;51.40;30.03;;;9.50;98.70;;;;;;5061174;28;20660;-84
2021/11/24 09:35:41;;;;;;;55.27;30.50;;;9.30;98.70;;;;;;5058563;28;20242;-80
2021/11/24 09:38:08;;;;;;;50.50;30.13;;;9.50;98.90;;;;;;5059866;28;20173;-80
2021/11/24 09:40:35;;;;;;;54.70;28.50;;;9.30;98.90;;;;;;5068138;28;20181;-81
2021/11/24 09:43:03;;;;;;;45.73;25.97;;;9.30;99.40;;;;;;5064480;28;20177;-79
2021/11/24 09:45:38;;;;;;;53.50;29.43;;;10.00;99.90;;;;;;5064671;28;20192;-84
2021/11/24 09:48:04;;;;;;;47.07;27.53;;;10.40;99.90;;;;;;5061061;28;20167;-80
2021/11/24 09:50:33;;;;;;;49.00;29.50;;;10.30;97.70;;;;;;5063032;28;20597;-81
2021/11/24 09:53:00;;;;;;;48.20;27.03;;;10.60;96.20;;;;;;5062150;28;20204;-81
2021/11/24 09:55:37;;;;;;;48.97;28.40;;;10.60;93.50;;;;;;5079362;28;20241;-80
2021/11/24 09:58:05;;;;;;;46.00;28.60;;;10.50;93.60;;;;;;5063525;28;20257;-84
2021/11/24 10:00:32;;;;;;;44.30;26.50;;;10.60;92.10;;;;;;5058731;28;20251;-82
2021/11/24 10:03:00;;;;;;;51.07;28.53;;;10.60;93.10;;;;;;5057786;28;20258;-79
2021/11/24 10:05:37;;;;;;;52.17;30.70;;;10.60;93.30;;;;;;5061057;28;20230;-80
2021/11/24 10:08:04;;;;;;;43.97;27.87;;;10.30;92.70;;;;;;5060188;28;20192;-79
2021/11/24 10:10:35;;;;;;;49.90;28.00;;;10.20;92.50;;;;;;5062702;28;20186;-88
2021/11/24 10:13:07;;;;;;;47.23;27.57;;;10.30;92.50;;;;;;5065566;28;20212;-78
2021/11/24 10:15:40;;;;;;;44.83;28.43;;;10.10;92.40;;;;;;5066619;28;20188;-78
2021/11/24 10:18:26;;;;;;;45.77;27.23;;;10.00;92.70;;;;;;5065825;28;20188;-80
2021/11/24 10:24:53;;;;;;;52.10;28.67;;;9.70;95.20;;;;;;5074622;28;20228;-90
2021/11/24 10:27:49;;;;;;;44.20;27.43;;;9.60;96.10;;;;;;5077090;28;20593;-89
2021/11/24 10:30:33;;;;;;;50.80;28.87;;;9.60;96.00;;;;;;5073789;28;20188;-86
2021/11/24 10:33:18;;;;;;;47.53;27.30;;;9.60;96.00;;;;;;5050976;28;20186;-87
2021/11/24 10:36:24;;;;;;;46.97;28.20;;;9.50;95.70;;;;;;5073171;28;20191;-86
2021/11/24 10:38:53;;;;;;;47.00;27.83;;;9.50;95.90;;;;;;5076987;28;20161;-82
2021/11/24 10:41:31;;;;;;;48.17;29.73;;;9.40;96.10;;;;;;5073288;28;20176;-89
2021/11/24 10:44:07;;;;;;;45.47;28.20;;;9.50;95.70;;;;;;5070420;28;20169;-88
2021/11/24 10:46:38;;;;;;;50.83;29.07;;;9.50;95.00;;;;;;5070997;28;20160;-84
2021/11/24 10:49:10;;;;;;;49.17;29.70;;;9.50;95.50;;;;;;5069572;28;20215;-91
2021/11/24 10:51:42;;;;;;;49.60;29.63;;;9.50;95.50;;;;;;5070656;28;20168;-88
2021/11/24 10:54:14;;;;;;;49.53;30.47;;;9.50;95.20;;;;;;5069702;28;20200;-89
2021/11/24 10:57:06;;;;;;;57.37;32.30;;;9.60;95.60;;;;;;5077393;28;20640;-80
2021/11/24 10:59:37;;;;;;;50.77;29.97;;;9.60;96.60;;;;;;5086330;28;20180;-87
2021/11/24 11:02:28;;;;;;;45.90;26.97;;;9.60;95.80;;;;;;5088198;28;20185;-80
2021/11/24 11:05:07;;;;;;;48.23;27.03;;;9.60;94.40;;;;;;5088793;28;20221;-85
2021/11/24 11:07:53;;;;;;;50.43;28.90;;;9.50;94.20;;;;;;5088318;28;20188;-82
2021/11/24 11:10:20;;;;;;;48.00;28.90;;;9.50;94.70;;;;;;5088194;28;20164;-85
2021/11/24 11:12:55;;;;;;;46.47;28.17;;;9.70;94.40;;;;;;5089024;28;20204;-79
2021/11/24 11:15:36;;;;;;;46.70;27.30;;;9.70;93.30;;;;;;5092294;28;20175;-83
2021/11/24 11:18:32;;;;;;;42.97;27.13;;;9.60;93.10;;;;;;5092998;28;20157;-81
2021/11/24 11:21:11;;;;;;;41.93;25.13;;;9.60;93.60;;;;;;5078148;28;20180;-81
2021/11/24 11:23:46;;;;;;;38.27;24.77;;;9.70;91.90;;;;;;5078658;28;20168;-80
2021/11/24 11:26:20;;;;;;;39.33;25.70;;;9.70;90.80;;;;;;5083759;28;20164;-79
2021/11/24 11:28:55;;;;;;;40.37;25.27;;;9.60;90.30;;;;;;5069465;28;20175;-87
2021/11/24 11:31:24;;;;;;;42.23;26.27;;;9.70;90.40;;;;;;5086258;28;20182;-87
2021/11/24 11:34:01;;;;;;;47.30;28.10;;;9.70;90.60;;;;;;5085962;28;20695;-89
2021/11/24 11:36:28;;;;;;;45.40;27.53;;;9.80;90.70;;;;;;5081030;28;20180;-80
2021/11/24 11:38:58;;;;;;;46.47;27.17;;;9.60;91.30;;;;;;5081164;28;20172;-87
2021/11/24 11:41:31;;;;;;;43.57;26.37;;;9.50;92.00;;;;;;5085052;28;20180;-87
2021/11/24 11:43:57;;;;;;;40.87;26.63;;;9.50;92.10;;;;;;5087338;28;20248;-86
2021/11/24 11:46:50;;;;;;;44.07;27.17;;;9.40;92.70;;;;;;5081089;28;20199;-85
2021/11/24 11:49:21;;;;;;;41.27;24.90;;;9.60;92.40;;;;;;5079673;28;20205;-84
2021/11/24 11:51:49;;;;;;;41.37;26.13;;;9.50;92.00;;;;;;5079705;28;20172;-85
2021/11/24 11:54:26;;;;;;;42.50;26.13;;;9.50;91.50;;;;;;5078578;28;20696;-87
2021/11/24 11:56:52;;;;;;;41.90;28.30;;;9.50;91.70;;;;;;5061068;28;20173;-86
2021/11/24 11:59:31;;;;;;;42.97;27.47;;;9.40;92.10;;;;;;5057713;28;20311;-85
2021/11/24 12:02:00;;;;;;;41.93;25.33;;;9.40;91.90;;;;;;5044063;28;20275;-83
2021/11/24 12:04:45;;;;;;;45.10;28.23;;;9.40;91.60;;;;;;5060904;28;20193;-84
2021/11/24 12:07:17;;;;;;;44.97;27.37;;;9.30;92.30;;;;;;5073325;28;20165;-84
2021/11/24 12:09:54;;;;;;;40.20;26.63;;;9.40;92.80;;;;;;5078377;28;20181;-85
2021/11/24 12:12:35;;;;;;;37.77;24.10;;;9.40;92.20;;;;;;5077477;28;20195;-85
2021/11/24 12:15:28;;;;;;;40.33;26.80;;;9.40;90.70;;;;;;5062324;28;20551;-83
2021/11/24 12:18:08;;;;;;;40.50;25.90;;;9.30;91.20;;;;;;5064630;28;20173;-88
2021/11/24 12:20:40;;;;;;;39.93;24.67;;;9.40;91.20;;;;;;5071378;28;20181;-83
2021/11/24 12:23:12;;;;;;;37.10;25.77;;;9.40;90.20;;;;;;5075698;28;20176;-87
2021/11/24 12:26:01;;;;;;;40.77;26.47;;;9.30;91.10;;;;;;5076890;28;20164;-88
2021/11/24 12:28:36;;;;;;;39.83;26.30;;;9.40;90.80;;;;;;5074519;28;20168;-84
2021/11/24 12:31:12;;;;;;;51.30;25.60;;;9.40;90.10;;;;;;5074999;28;20200;-81
2021/11/24 12:33:41;;;;;;;35.90;25.00;;;9.40;89.00;;;;;;5057488;28;20219;-88
2021/11/24 12:36:11;;;;;;;37.60;25.20;;;9.30;90.00;;;;;;5061604;28;20161;-86
2021/11/24 12:38:55;;;;;;;37.07;25.03;;;9.40;89.20;;;;;;5060313;28;20177;-86
2021/11/24 12:41:36;;;;;;;32.63;24.00;;;9.40;88.90;;;;;;5065309;28;20564;-86
2021/11/24 12:44:10;;;;;;;35.10;22.07;;;9.40;88.50;;;;;;5064606;28;20206;-91
2021/11/24 12:46:44;;;;;;;32.63;21.97;;;9.40;85.00;;;;;;5071321;28;20230;-79
2021/11/24 12:49:17;;;;;;;41.87;26.60;;;9.50;82.60;;;;;;5064561;28;20189;-81